sensor_id;sensor_type;location;lat;lon;timestamp;pressure;altitude;pressure_sealevel;temperature;humidity
16122;BME280;8165;52.730;10.720;2024-03-29T00:02:18;98563.94;;;9.91;100.00
16122;BME280;8165;52.730;10.720;2024-03-29T00:04:39;98557.44;;;10.32;100.00
16122;BME280;8165;52.730;10.720;2024-03-29T00:07:00;98546.88;;;10.07;100.00
16122;BME280;8165;52.730;10.720;2024-03-29T00:09:21;98564.50;;;10.33;100.00
16122;BME280;8165;52.730;10.720;2024-03-29T00:11:42;98559.19;;;10.06;100.00
16122;BME280;8165;52.730;10.720;2024-03-29T00:14:02;98539.41;;;9.84;100.00
16122;BME280;8165;52.730;10.720;2024-03-29T00:16:23;98541.28;;;9.78;100.00
16122;BME280;8165;52.730;10.720;2024-03-29T00:18:46;98560.53;;;9.72;100.00
16122;BME280;8165;52.730;10.720;2024-03-29T00:21:07;98557.59;;;9.76;100.00
16122;BME280;8165;52.730;10.720;2024-03-29T00:23:27;98545.69;;;9.46;100.00
16122;BME280;8165;52.730;10.720;2024-03-29T00:25:48;98549.53;;;9.87;100.00
16122;BME280;8165;52.730;10.720;2024-03-29T00:28:09;98548.94;;;9.98;100.00
16122;BME280;8165;52.730;10.720;2024-03-29T00:30:30;98560.44;;;9.67;100.00
16122;BME280;8165;52.730;10.720;2024-03-29T00:32:51;98555.47;;;9.95;100.00
16122;BME280;8165;52.730;10.720;2024-03-29T00:35:12;98569.19;;;9.89;100.00
16122;BME280;8165;52.730;10.720;2024-03-29T00:37:36;98558.03;;;9.98;100.00
16122;BME280;8165;52.730;10.720;2024-03-29T00:39:57;98565.34;;;9.72;100.00
16122;BME280;8165;52.730;10.720;2024-03-29T00:42:18;98568.75;;;9.67;100.00
16122;BME280;8165;52.730;10.720;2024-03-29T00:44:40;98564.03;;;9.82;100.00
16122;BME280;8165;52.730;10.720;2024-03-29T00:47:01;98560.59;;;9.87;100.00
16122;BME280;8165;52.730;10.720;2024-03-29T00:49:22;98558.09;;;9.74;100.00
16122;BME280;8165;52.730;10.720;2024-03-29T00:51:43;98560.06;;;10.12;100.00
16122;BME280;8165;52.730;10.720;2024-03-29T00:54:04;98563.47;;;9.93;100.00
16122;BME280;8165;52.730;10.720;2024-03-29T00:56:24;98566.53;;;9.95;100.00
16122;BME280;8165;52.730;10.720;2024-03-29T00:58:45;98559.59;;;9.75;100.00
16122;BME280;8165;52.730;10.720;2024-03-29T01:01:06;98564.00;;;9.67;100.00
16122;BME280;8165;52.730;10.720;2024-03-29T01:03:27;98561.69;;;9.66;100.00
16122;BME280;8165;52.730;10.720;2024-03-29T01:05:50;98569.69;;;9.64;100.00
16122;BME280;8165;52.730;10.720;2024-03-29T01:08:11;98572.63;;;9.60;100.00
16122;BME280;8165;52.730;10.720;2024-03-29T01:10:32;98578.06;;;9.55;100.00
16122;BME280;8165;52.730;10.720;2024-03-29T01:12:53;98572.63;;;9.37;100.00
16122;BME280;8165;52.730;10.720;2024-03-29T01:15:14;98583.25;;;9.62;100.00
16122;BME280;8165;52.730;10.720;2024-03-29T01:17:35;98576.97;;;9.76;100.00
16122;BME280;8165;52.730;10.720;2024-03-29T01:19:55;98573.28;;;9.32;100.00
16122;BME280;8165;52.730;10.720;2024-03-29T01:22:16;98576.88;;;9.47;100.00
16122;BME280;8165;52.730;10.720;2024-03-29T01:24:37;98579.28;;;9.54;100.00
16122;BME280;8165;52.730;10.720;2024-03-29T01:26:58;98583.03;;;9.18;100.00
16122;BME280;8165;52.730;10.720;2024-03-29T01:29:19;98573.06;;;9.11;100.00
16122;BME280;8165;52.730;10.720;2024-03-29T01:31:40;98583.13;;;9.33;100.00
16122;BME280;8165;52.730;10.720;2024-03-29T01:34:01;98587.09;;;9.32;100.00
16122;BME280;8165;52.730;10.720;2024-03-29T01:36:23;98583.94;;;9.48;100.00
16122;BME280;8165;52.730;10.720;2024-03-29T01:38:44;98585.75;;;9.27;100.00
16122;BME280;8165;52.730;10.720;2024-03-29T01:41:09;98586.47;;;9.37;100.00
16122;BME280;8165;52.730;10.720;2024-03-29T01:43:30;98592.06;;;9.51;100.00
16122;BME280;8165;52.730;10.720;2024-03-29T01:45:53;98583.69;;;9.37;100.00
16122;BME280;8165;52.730;10.720;2024-03-29T01:48:16;98579.41;;;9.36;100.00
16122;BME280;8165;52.730;10.720;2024-03-29T01:50:38;98581.34;;;9.44;100.00
16122;BME280;8165;52.730;10.720;2024-03-29T01:52:59;98582.28;;;9.41;100.00
16122;BME280;8165;52.730;10.720;2024-03-29T01:55:20;98590.56;;;9.18;100.00
16122;BME280;8165;52.730;10.720;2024-03-29T01:57:42;98593.00;;;9.25;100.00
16122;BME280;8165;52.730;10.720;2024-03-29T02:00:04;98587.28;;;9.28;100.00
16122;BME280;8165;52.730;10.720;2024-03-29T02:02:26;98581.41;;;9.35;100.00
16122;BME280;8165;52.730;10.720;2024-03-29T02:04:47;98579.00;;;9.52;100.00
16122;BME280;8165;52.730;10.720;2024-03-29T02:07:09;98560.31;;;9.38;100.00
16122;BME280;8165;52.730;10.720;2024-03-29T02:09:30;98583.03;;;9.65;100.00
16122;BME280;8165;52.730;10.720;2024-03-29T02:11:51;98581.94;;;9.25;100.00
16122;BME280;8165;52.730;10.720;2024-03-29T02:14:11;98566.88;;;9.49;100.00
16122;BME280;8165;52.730;10.720;2024-03-29T02:16:33;98586.88;;;9.44;100.00
16122;BME280;8165;52.730;10.720;2024-03-29T02:18:54;98580.03;;;9.78;100.00
16122;BME280;8165;52.730;10.720;2024-03-29T02:21:14;98580.97;;;9.75;100.00
16122;BME280;8165;52.730;10.720;2024-03-29T02:23:37;98587.03;;;9.88;100.00
16122;BME280;8165;52.730;10.720;2024-03-29T02:26:01;98594.75;;;9.84;100.00
16122;BME280;8165;52.730;10.720;2024-03-29T02:28:23;98590.53;;;9.74;100.00
16122;BME280;8165;52.730;10.720;2024-03-29T02:30:44;98600.94;;;9.55;100.00
16122;BME280;8165;52.730;10.720;2024-03-29T02:33:05;98596.53;;;9.49;100.00
16122;BME280;8165;52.730;10.720;2024-03-29T02:35:26;98594.06;;;9.74;100.00
16122;BME280;8165;52.730;10.720;2024-03-29T02:37:47;98604.72;;;9.67;100.00
16122;BME280;8165;52.730;10.720;2024-03-29T02:40:09;98599.03;;;9.85;100.00
16122;BME280;8165;52.730;10.720;2024-03-29T02:42:30;98613.00;;;9.20;100.00
16122;BME280;8165;52.730;10.720;2024-03-29T02:44:51;98620.94;;;9.27;100.00
16122;BME280;8165;52.730;10.720;2024-03-29T02:47:12;98608.03;;;9.24;100.00
16122;BME280;8165;52.730;10.720;2024-03-29T02:49:33;98623.63;;;9.12;100.00
16122;BME280;8165;52.730;10.720;2024-03-29T02:51:53;98621.09;;;9.23;100.00
16122;BME280;8165;52.730;10.720;2024-03-29T02:54:15;98632.97;;;9.15;100.00
16122;BME280;8165;52.730;10.720;2024-03-29T02:56:36;98630.22;;;9.15;100.00
16122;BME280;8165;52.730;10.720;2024-03-29T02:58:57;98618.59;;;9.01;100.00
16122;BME280;8165;52.730;10.720;2024-03-29T03:01:18;98626.81;;;9.20;100.00
16122;BME280;8165;52.730;10.720;2024-03-29T03:03:38;98625.75;;;9.17;100.00
16122;BME280;8165;52.730;10.720;2024-03-29T03:05:59;98618.53;;;9.10;100.00
16122;BME280;8165;52.730;10.720;2024-03-29T03:08:20;98620.38;;;9.13;100.00
16122;BME280;8165;52.730;10.720;2024-03-29T03:11:00;98609.28;;;8.90;100.00
16122;BME280;8165;52.730;10.720;2024-03-29T03:13:21;98604.97;;;9.22;100.00
16122;BME280;8165;52.730;10.720;2024-03-29T03:15:41;98592.00;;;9.37;100.00
16122;BME280;8165;52.730;10.720;2024-03-29T03:18:02;98585.56;;;9.31;100.00
16122;BME280;8165;52.730;10.720;2024-03-29T03:20:23;98589.81;;;9.41;100.00
16122;BME280;8165;52.730;10.720;2024-03-29T03:22:51;98566.28;;;9.69;100.00
16122;BME280;8165;52.730;10.720;2024-03-29T03:25:12;98558.25;;;9.71;100.00
16122;BME280;8165;52.730;10.720;2024-03-29T03:27:32;98557.72;;;9.82;100.00
16122;BME280;8165;52.730;10.720;2024-03-29T03:29:53;98567.78;;;9.70;100.00
16122;BME280;8165;52.730;10.720;2024-03-29T03:32:14;98561.50;;;9.69;100.00
16122;BME280;8165;52.730;10.720;2024-03-29T03:34:35;98549.88;;;9.80;100.00
16122;BME280;8165;52.730;10.720;2024-03-29T03:36:58;98556.06;;;9.75;100.00
16122;BME280;8165;52.730;10.720;2024-03-29T03:39:19;98553.38;;;10.04;100.00
16122;BME280;8165;52.730;10.720;2024-03-29T03:41:40;98543.00;;;9.75;100.00
16122;BME280;8165;52.730;10.720;2024-03-29T03:44:01;98557.63;;;10.14;100.00
16122;BME280;8165;52.730;10.720;2024-03-29T03:46:22;98558.50;;;9.82;100.00
16122;BME280;8165;52.730;10.720;2024-03-29T03:48:43;98556.03;;;9.99;100.00
16122;BME280;8165;52.730;10.720;2024-03-29T03:51:04;98557.47;;;9.94;100.00
16122;BME280;8165;52.730;10.720;2024-03-29T03:53:25;98561.75;;;9.95;100.00
16122;BME280;8165;52.730;10.720;2024-03-29T03:55:45;98566.84;;;9.73;100.00
16122;BME280;8165;52.730;10.720;2024-03-29T03:58:06;98562.47;;;9.81;100.00
16122;BME280;8165;52.730;10.720;2024-03-29T04:00:27;98560.47;;;9.82;100.00
16122;BME280;8165;52.730;10.720;2024-03-29T04:02:52;98546.72;;;9.49;100.00
16122;BME280;8165;52.730;10.720;2024-03-29T04:05:13;98561.16;;;9.53;100.00
16122;BME280;8165;52.730;10.720;2024-03-29T04:07:34;98551.16;;;10.08;100.00
16122;BME280;8165;52.730;10.720;2024-03-29T04:09:54;98529.53;;;10.21;100.00
16122;BME280;8165;52.730;10.720;2024-03-29T04:12:15;98542.06;;;9.93;100.00
16122;BME280;8165;52.730;10.720;2024-03-29T04:14:36;98546.00;;;10.01;100.00
16122;BME280;8165;52.730;10.720;2024-03-29T04:16:57;98556.84;;;10.14;100.00
16122;BME280;8165;52.730;10.720;2024-03-29T04:19:18;98558.25;;;9.71;100.00
16122;BME280;8165;52.730;10.720;2024-03-29T04:21:39;98560.28;;;9.85;100.00
16122;BME280;8165;52.730;10.720;2024-03-29T04:24:00;98560.38;;;9.76;100.00
16122;BME280;8165;52.730;10.720;2024-03-29T04:26:21;98561.22;;;9.67;100.00
16122;BME280;8165;52.730;10.720;2024-03-29T04:28:42;98556.84;;;10.14;100.00
16122;BME280;8165;52.730;10.720;2024-03-29T04:31:03;98556.19;;;9.95;100.00
16122;BME280;8165;52.730;10.720;2024-03-29T04:33:25;98554.09;;;9.90;100.00
16122;BME280;8165;52.730;10.720;2024-03-29T04:36:03;98556.16;;;10.04;100.00
16122;BME280;8165;52.730;10.720;2024-03-29T04:38:24;98568.66;;;10.00;100.00
16122;BME280;8165;52.730;10.720;2024-03-29T04:40:45;98570.88;;;9.72;100.00
16122;BME280;8165;52.730;10.720;2024-03-29T04:43:06;98591.38;;;9.80;100.00
16122;BME280;8165;52.730;10.720;2024-03-29T04:45:27;98595.53;;;9.85;100.00
16122;BME280;8165;52.730;10.720;2024-03-29T04:47:48;98603.53;;;9.83;100.00
16122;BME280;8165;52.730;10.720;2024-03-29T04:50:09;98585.88;;;10.18;100.00
16122;BME280;8165;52.730;10.720;2024-03-29T04:52:30;98572.25;;;9.91;100.00
16122;BME280;8165;52.730;10.720;2024-03-29T04:54:51;98560.69;;;10.16;100.00
16122;BME280;8165;52.730;10.720;2024-03-29T04:57:12;98557.81;;;10.25;100.00
16122;BME280;8165;52.730;10.720;2024-03-29T04:59:33;98576.38;;;10.10;100.00
16122;BME280;8165;52.730;10.720;2024-03-29T05:01:55;98571.00;;;10.30;100.00
16122;BME280;8165;52.730;10.720;2024-03-29T05:04:17;98587.34;;;10.28;100.00
16122;BME280;8165;52.730;10.720;2024-03-29T05:06:39;98578.47;;;10.24;100.00
16122;BME280;8165;52.730;10.720;2024-03-29T05:09:00;98579.13;;;10.19;100.00
16122;BME280;8165;52.730;10.720;2024-03-29T05:11:21;98578.81;;;10.17;100.00
16122;BME280;8165;52.730;10.720;2024-03-29T05:13:42;98568.88;;;10.25;100.00
16122;BME280;8165;52.730;10.720;2024-03-29T05:16:03;98583.41;;;10.35;100.00
16122;BME280;8165;52.730;10.720;2024-03-29T05:18:24;98573.19;;;9.88;100.00
16122;BME280;8165;52.730;10.720;2024-03-29T05:20:45;98601.56;;;10.21;100.00
16122;BME280;8165;52.730;10.720;2024-03-29T05:23:09;98603.59;;;9.97;100.00
16122;BME280;8165;52.730;10.720;2024-03-29T05:25:30;98610.25;;;9.91;100.00
16122;BME280;8165;52.730;10.720;2024-03-29T05:27:51;98614.59;;;10.06;100.00
16122;BME280;8165;52.730;10.720;2024-03-29T05:30:12;98609.66;;;9.87;100.00
16122;BME280;8165;52.730;10.720;2024-03-29T05:32:33;98614.59;;;9.83;100.00
16122;BME280;8165;52.730;10.720;2024-03-29T05:34:54;98638.88;;;9.64;100.00
16122;BME280;8165;52.730;10.720;2024-03-29T05:37:15;98639.03;;;9.37;100.00
16122;BME280;8165;52.730;10.720;2024-03-29T05:39:38;98645.06;;;9.59;100.00
16122;BME280;8165;52.730;10.720;2024-03-29T05:41:59;98635.81;;;9.86;100.00
16122;BME280;8165;52.730;10.720;2024-03-29T05:44:20;98658.19;;;9.97;100.00
16122;BME280;8165;52.730;10.720;2024-03-29T05:46:41;98656.78;;;9.77;100.00
16122;BME280;8165;52.730;10.720;2024-03-29T05:49:02;98655.31;;;9.91;100.00
16122;BME280;8165;52.730;10.720;2024-03-29T05:51:22;98667.44;;;9.94;100.00
16122;BME280;8165;52.730;10.720;2024-03-29T05:53:43;98668.03;;;9.98;100.00
16122;BME280;8165;52.730;10.720;2024-03-29T05:56:05;98668.81;;;10.22;100.00
16122;BME280;8165;52.730;10.720;2024-03-29T05:58:27;98674.25;;;10.07;100.00
16122;BME280;8165;52.730;10.720;2024-03-29T06:00:47;98676.09;;;10.10;100.00
16122;BME280;8165;52.730;10.720;2024-03-29T06:03:09;98672.34;;;9.99;100.00
16122;BME280;8165;52.730;10.720;2024-03-29T06:05:30;98680.97;;;9.68;100.00
16122;BME280;8165;52.730;10.720;2024-03-29T06:07:51;98692.66;;;9.72;100.00
16122;BME280;8165;52.730;10.720;2024-03-29T06:10:12;98691.44;;;9.97;100.00
16122;BME280;8165;52.730;10.720;2024-03-29T06:12:35;98692.66;;;9.96;100.00
16122;BME280;8165;52.730;10.720;2024-03-29T06:14:56;98685.56;;;9.71;100.00
16122;BME280;8165;52.730;10.720;2024-03-29T06:17:36;98690.56;;;10.14;100.00
16122;BME280;8165;52.730;10.720;2024-03-29T06:19:57;98709.75;;;9.94;100.00
16122;BME280;8165;52.730;10.720;2024-03-29T06:22:21;98709.31;;;10.10;100.00
16122;BME280;8165;52.730;10.720;2024-03-29T06:24:42;98699.81;;;10.02;100.00
16122;BME280;8165;52.730;10.720;2024-03-29T06:27:04;98717.94;;;9.89;100.00
16122;BME280;8165;52.730;10.720;2024-03-29T06:29:25;98719.63;;;9.86;100.00
16122;BME280;8165;52.730;10.720;2024-03-29T06:31:46;98723.63;;;9.85;100.00
16122;BME280;8165;52.730;10.720;2024-03-29T06:34:07;98733.31;;;9.90;100.00
16122;BME280;8165;52.730;10.720;2024-03-29T06:36:28;98718.31;;;9.72;100.00
16122;BME280;8165;52.730;10.720;2024-03-29T06:38:51;98737.31;;;9.89;100.00
16122;BME280;8165;52.730;10.720;2024-03-29T06:41:12;98747.31;;;9.86;100.00
16122;BME280;8165;52.730;10.720;2024-03-29T06:43:33;98752.16;;;10.00;100.00
16122;BME280;8165;52.730;10.720;2024-03-29T06:45:54;98760.47;;;10.00;100.00
16122;BME280;8165;52.730;10.720;2024-03-29T06:48:16;98749.19;;;9.80;100.00
16122;BME280;8165;52.730;10.720;2024-03-29T06:50:37;98746.31;;;9.98;100.00
16122;BME280;8165;52.730;10.720;2024-03-29T06:52:59;98738.72;;;9.84;100.00
16122;BME280;8165;52.730;10.720;2024-03-29T06:55:20;98741.91;;;9.92;100.00
16122;BME280;8165;52.730;10.720;2024-03-29T06:57:40;98754.97;;;9.91;100.00
16122;BME280;8165;52.730;10.720;2024-03-29T07:00:02;98767.47;;;10.10;100.00
16122;BME280;8165;52.730;10.720;2024-03-29T07:02:24;98766.28;;;10.02;100.00
16122;BME280;8165;52.730;10.720;2024-03-29T07:04:44;98756.09;;;9.85;100.00
16122;BME280;8165;52.730;10.720;2024-03-29T07:07:05;98766.63;;;9.95;100.00
16122;BME280;8165;52.730;10.720;2024-03-29T07:09:26;98756.84;;;9.85;100.00
16122;BME280;8165;52.730;10.720;2024-03-29T07:11:48;98740.22;;;9.94;100.00
16122;BME280;8165;52.730;10.720;2024-03-29T07:14:09;98749.16;;;10.22;100.00
16122;BME280;8165;52.730;10.720;2024-03-29T07:16:30;98750.72;;;10.37;100.00
16122;BME280;8165;52.730;10.720;2024-03-29T07:18:51;98751.50;;;10.14;100.00
16122;BME280;8165;52.730;10.720;2024-03-29T07:21:11;98733.66;;;10.06;100.00
16122;BME280;8165;52.730;10.720;2024-03-29T07:23:32;98752.69;;;9.90;100.00
16122;BME280;8165;52.730;10.720;2024-03-29T07:28:18;98760.25;;;9.80;100.00
16122;BME280;8165;52.730;10.720;2024-03-29T07:30:41;98769.72;;;9.97;100.00
16122;BME280;8165;52.730;10.720;2024-03-29T07:33:02;98760.69;;;10.20;100.00
16122;BME280;8165;52.730;10.720;2024-03-29T07:35:23;98764.72;;;10.19;100.00
16122;BME280;8165;52.730;10.720;2024-03-29T07:37:44;98762.63;;;10.53;100.00
16122;BME280;8165;52.730;10.720;2024-03-29T07:40:11;98766.50;;;10.22;100.00
16122;BME280;8165;52.730;10.720;2024-03-29T07:42:32;98759.69;;;10.56;100.00
16122;BME280;8165;52.730;10.720;2024-03-29T07:44:53;98761.66;;;10.56;100.00
16122;BME280;8165;52.730;10.720;2024-03-29T07:47:14;98746.91;;;10.88;100.00
16122;BME280;8165;52.730;10.720;2024-03-29T07:49:35;98733.44;;;10.95;100.00
16122;BME280;8165;52.730;10.720;2024-03-29T07:51:56;98738.88;;;10.90;100.00
16122;BME280;8165;52.730;10.720;2024-03-29T07:54:17;98726.06;;;11.07;100.00
16122;BME280;8165;52.730;10.720;2024-03-29T07:56:38;98724.25;;;11.04;100.00
16122;BME280;8165;52.730;10.720;2024-03-29T07:58:59;98725.50;;;11.03;100.00
16122;BME280;8165;52.730;10.720;2024-03-29T08:01:20;98727.59;;;10.79;100.00
16122;BME280;8165;52.730;10.720;2024-03-29T08:03:41;98725.31;;;11.06;100.00
16122;BME280;8165;52.730;10.720;2024-03-29T08:06:03;98722.63;;;11.12;100.00
16122;BME280;8165;52.730;10.720;2024-03-29T08:08:27;98727.69;;;10.99;100.00
16122;BME280;8165;52.730;10.720;2024-03-29T08:10:48;98718.91;;;11.00;100.00
16122;BME280;8165;52.730;10.720;2024-03-29T08:13:09;98720.44;;;11.16;100.00
16122;BME280;8165;52.730;10.720;2024-03-29T08:15:30;98707.34;;;11.02;100.00
16122;BME280;8165;52.730;10.720;2024-03-29T08:17:51;98708.59;;;11.16;100.00
16122;BME280;8165;52.730;10.720;2024-03-29T08:20:12;98697.38;;;11.10;100.00
16122;BME280;8165;52.730;10.720;2024-03-29T08:22:33;98696.72;;;11.15;100.00
16122;BME280;8165;52.730;10.720;2024-03-29T08:24:55;98685.53;;;11.10;100.00
16122;BME280;8165;52.730;10.720;2024-03-29T08:27:16;98666.97;;;11.16;100.00
16122;BME280;8165;52.730;10.720;2024-03-29T08:29:37;98675.09;;;11.19;100.00
16122;BME280;8165;52.730;10.720;2024-03-29T08:31:58;98672.81;;;11.18;100.00
16122;BME280;8165;52.730;10.720;2024-03-29T08:34:19;98672.91;;;11.23;100.00
16122;BME280;8165;52.730;10.720;2024-03-29T08:36:40;98667.72;;;11.31;100.00
16122;BME280;8165;52.730;10.720;2024-03-29T08:39:01;98668.03;;;11.18;100.00
16122;BME280;8165;52.730;10.720;2024-03-29T08:41:22;98663.50;;;11.35;100.00
16122;BME280;8165;52.730;10.720;2024-03-29T08:43:43;98664.56;;;11.23;100.00
16122;BME280;8165;52.730;10.720;2024-03-29T08:46:04;98654.50;;;11.40;100.00
16122;BME280;8165;52.730;10.720;2024-03-29T08:48:26;98653.53;;;11.43;100.00
16122;BME280;8165;52.730;10.720;2024-03-29T08:50:47;98648.25;;;11.45;100.00
16122;BME280;8165;52.730;10.720;2024-03-29T08:53:08;98635.53;;;11.39;100.00
16122;BME280;8165;52.730;10.720;2024-03-29T08:55:33;98636.56;;;11.41;100.00
16122;BME280;8165;52.730;10.720;2024-03-29T08:57:54;98621.78;;;11.30;100.00
16122;BME280;8165;52.730;10.720;2024-03-29T09:00:15;98625.03;;;11.28;100.00
16122;BME280;8165;52.730;10.720;2024-03-29T09:02:36;98614.25;;;11.50;100.00
16122;BME280;8165;52.730;10.720;2024-03-29T09:04:57;98618.44;;;11.60;100.00
16122;BME280;8165;52.730;10.720;2024-03-29T09:07:19;98620.53;;;11.65;100.00
16122;BME280;8165;52.730;10.720;2024-03-29T09:09:39;98633.06;;;11.41;100.00
16122;BME280;8165;52.730;10.720;2024-03-29T09:12:02;98626.38;;;11.33;100.00
16122;BME280;8165;52.730;10.720;2024-03-29T09:14:23;98624.72;;;11.41;100.00
16122;BME280;8165;52.730;10.720;2024-03-29T09:16:44;98618.56;;;11.51;100.00
16122;BME280;8165;52.730;10.720;2024-03-29T09:19:08;98627.88;;;11.34;100.00
16122;BME280;8165;52.730;10.720;2024-03-29T09:21:28;98638.59;;;11.41;100.00
16122;BME280;8165;52.730;10.720;2024-03-29T09:23:49;98634.47;;;11.36;100.00
16122;BME280;8165;52.730;10.720;2024-03-29T09:26:15;98645.31;;;11.34;100.00
16122;BME280;8165;52.730;10.720;2024-03-29T09:28:36;98648.72;;;11.44;100.00
16122;BME280;8165;52.730;10.720;2024-03-29T09:30:58;98638.97;;;11.48;100.00
16122;BME280;8165;52.730;10.720;2024-03-29T09:33:22;98640.88;;;11.42;100.00
16122;BME280;8165;52.730;10.720;2024-03-29T09:35:43;98641.00;;;11.33;100.00
16122;BME280;8165;52.730;10.720;2024-03-29T09:38:04;98641.41;;;11.61;100.00
16122;BME280;8165;52.730;10.720;2024-03-29T09:40:26;98634.38;;;11.45;100.00
16122;BME280;8165;52.730;10.720;2024-03-29T09:42:48;98631.47;;;11.54;100.00
16122;BME280;8165;52.730;10.720;2024-03-29T09:45:10;98630.38;;;11.32;100.00
16122;BME280;8165;52.730;10.720;2024-03-29T09:47:32;98621.09;;;11.69;100.00
16122;BME280;8165;52.730;10.720;2024-03-29T09:49:54;98628.19;;;11.71;100.00
16122;BME280;8165;52.730;10.720;2024-03-29T09:52:18;98623.88;;;11.69;100.00
16122;BME280;8165;52.730;10.720;2024-03-29T09:54:40;98623.38;;;11.71;100.00
16122;BME280;8165;52.730;10.720;2024-03-29T09:57:01;98627.03;;;11.62;100.00
16122;BME280;8165;52.730;10.720;2024-03-29T09:59:26;98632.28;;;11.40;100.00
16122;BME280;8165;52.730;10.720;2024-03-29T10:01:48;98621.59;;;11.68;100.00
16122;BME280;8165;52.730;10.720;2024-03-29T10:04:10;98630.88;;;11.65;100.00
16122;BME280;8165;52.730;10.720;2024-03-29T10:06:33;98621.59;;;11.68;100.00
16122;BME280;8165;52.730;10.720;2024-03-29T10:08:55;98607.75;;;11.53;100.00
16122;BME280;8165;52.730;10.720;2024-03-29T10:11:19;98619.00;;;11.64;100.00
16122;BME280;8165;52.730;10.720;2024-03-29T10:13:40;98605.00;;;11.74;100.00
16122;BME280;8165;52.730;10.720;2024-03-29T10:16:03;98599.16;;;11.92;100.00
16122;BME280;8165;52.730;10.720;2024-03-29T10:18:25;98608.47;;;12.09;100.00
16122;BME280;8165;52.730;10.720;2024-03-29T10:20:46;98602.19;;;12.14;100.00
16122;BME280;8165;52.730;10.720;2024-03-29T10:23:07;98610.94;;;12.27;100.00
16122;BME280;8165;52.730;10.720;2024-03-29T10:25:32;98597.16;;;12.38;100.00
16122;BME280;8165;52.730;10.720;2024-03-29T10:27:55;98592.59;;;12.35;100.00
16122;BME280;8165;52.730;10.720;2024-03-29T10:30:16;98594.97;;;12.22;100.00
16122;BME280;8165;52.730;10.720;2024-03-29T10:32:40;98594.88;;;12.37;100.00
16122;BME280;8165;52.730;10.720;2024-03-29T10:35:01;98612.34;;;12.17;100.00
16122;BME280;8165;52.730;10.720;2024-03-29T10:37:23;98605.34;;;12.47;100.00
16122;BME280;8165;52.730;10.720;2024-03-29T10:39:48;98604.44;;;12.35;100.00
16122;BME280;8165;52.730;10.720;2024-03-29T10:42:09;98593.88;;;12.65;100.00
16122;BME280;8165;52.730;10.720;2024-03-29T10:44:34;98600.53;;;12.73;100.00
16122;BME280;8165;52.730;10.720;2024-03-29T10:46:58;98606.66;;;13.09;100.00
16122;BME280;8165;52.730;10.720;2024-03-29T10:49:21;98596.06;;;13.55;100.00
16122;BME280;8165;52.730;10.720;2024-03-29T10:51:44;98600.00;;;13.32;100.00
16122;BME280;8165;52.730;10.720;2024-03-29T10:54:06;98593.97;;;13.39;100.00
16122;BME280;8165;52.730;10.720;2024-03-29T10:56:27;98599.53;;;13.39;100.00
16122;BME280;8165;52.730;10.720;2024-03-29T10:58:50;98589.41;;;13.36;100.00
16122;BME280;8165;52.730;10.720;2024-03-29T11:01:14;98594.69;;;13.02;100.00
16122;BME280;8165;52.730;10.720;2024-03-29T11:03:59;98603.38;;;12.79;100.00
16122;BME280;8165;52.730;10.720;2024-03-29T11:06:26;98593.13;;;12.96;100.00
16122;BME280;8165;52.730;10.720;2024-03-29T11:08:51;98599.41;;;13.17;100.00
16122;BME280;8165;52.730;10.720;2024-03-29T11:11:13;98599.28;;;13.06;100.00
16122;BME280;8165;52.730;10.720;2024-03-29T11:13:47;98590.28;;;13.16;100.00
16122;BME280;8165;52.730;10.720;2024-03-29T11:16:09;98589.25;;;13.14;100.00
16122;BME280;8165;52.730;10.720;2024-03-29T11:18:31;98607.81;;;12.96;100.00
16122;BME280;8165;52.730;10.720;2024-03-29T11:20:52;98608.06;;;13.30;100.00
16122;BME280;8165;52.730;10.720;2024-03-29T11:23:14;98603.69;;;13.60;100.00
16122;BME280;8165;52.730;10.720;2024-03-29T11:25:40;98595.22;;;13.38;100.00
16122;BME280;8165;52.730;10.720;2024-03-29T11:28:08;98609.06;;;13.63;100.00
16122;BME280;8165;52.730;10.720;2024-03-29T11:30:30;98613.34;;;13.59;100.00
16122;BME280;8165;52.730;10.720;2024-03-29T11:32:51;98604.94;;;13.53;100.00
16122;BME280;8165;52.730;10.720;2024-03-29T11:35:16;98609.91;;;13.38;100.00
16122;BME280;8165;52.730;10.720;2024-03-29T11:37:37;98616.84;;;13.54;100.00
16122;BME280;8165;52.730;10.720;2024-03-29T11:39:59;98614.06;;;14.07;100.00
16122;BME280;8165;52.730;10.720;2024-03-29T11:42:57;98615.94;;;14.33;100.00
16122;BME280;8165;52.730;10.720;2024-03-29T11:45:18;98632.22;;;14.45;100.00
16122;BME280;8165;52.730;10.720;2024-03-29T11:47:40;98618.88;;;14.07;100.00
16122;BME280;8165;52.730;10.720;2024-03-29T11:50:02;98616.13;;;14.18;100.00
16122;BME280;8165;52.730;10.720;2024-03-29T11:52:23;98614.28;;;13.98;100.00
16122;BME280;8165;52.730;10.720;2024-03-29T11:54:44;98631.94;;;14.38;100.00
16122;BME280;8165;52.730;10.720;2024-03-29T11:57:05;98635.38;;;14.10;100.00
16122;BME280;8165;52.730;10.720;2024-03-29T11:59:26;98641.91;;;13.96;100.00
16122;BME280;8165;52.730;10.720;2024-03-29T12:01:47;98633.53;;;13.96;100.00
16122;BME280;8165;52.730;10.720;2024-03-29T12:04:08;98637.03;;;13.86;100.00
16122;BME280;8165;52.730;10.720;2024-03-29T12:06:29;98617.97;;;13.73;100.00
16122;BME280;8165;52.730;10.720;2024-03-29T12:08:50;98617.59;;;14.02;100.00
16122;BME280;8165;52.730;10.720;2024-03-29T12:11:13;98632.81;;;14.01;100.00
16122;BME280;8165;52.730;10.720;2024-03-29T12:13:34;98642.38;;;14.48;100.00
16122;BME280;8165;52.730;10.720;2024-03-29T12:15:56;98628.91;;;14.36;100.00
16122;BME280;8165;52.730;10.720;2024-03-29T12:18:19;98622.25;;;14.27;100.00
16122;BME280;8165;52.730;10.720;2024-03-29T12:20:40;98629.41;;;14.40;100.00
16122;BME280;8165;52.730;10.720;2024-03-29T12:23:02;98639.56;;;14.43;100.00
16122;BME280;8165;52.730;10.720;2024-03-29T12:25:24;98635.75;;;14.46;100.00
16122;BME280;8165;52.730;10.720;2024-03-29T12:27:45;98626.69;;;14.73;100.00
16122;BME280;8165;52.730;10.720;2024-03-29T12:30:07;98623.50;;;14.21;100.00